Time;durP1;ratioP1;P1;durP2;ratioP2;P2;SDS_P1;SDS_P2;PMS_P1;PMS_P2;Temp;Humidity;BMP_temperature;BMP_pressure;BME280_temperature;BME280_humidity;BME280_pressure;Samples;Min_cycle;Max_cycle;Signal;HPM_P1;HPM_P2
2023/08/26 00:01:07;;;;;;;;;32.50;32.00;;;;;-128.00;-1.00;-1.00;106497;1266;1002467;-79
2023/08/26 00:03:33;;;;;;;;;34.67;33.33;;;;;-128.00;-1.00;-1.00;106499;1265;1002314;-78
2023/08/26 00:05:59;;;;;;;;;36.00;34.00;;;;;-128.00;-1.00;-1.00;106513;1265;1002237;-79
2023/08/26 00:08:25;;;;;;;;;33.00;31.33;;;;;-128.00;-1.00;-1.00;106454;1265;1002768;-78
2023/08/26 00:10:51;;;;;;;;;31.50;31.50;;;;;-128.00;-1.00;-1.00;106462;1265;1002619;-78
2023/08/26 00:13:17;;;;;;;;;38.00;34.00;;;;;-128.00;-1.00;-1.00;106470;1266;1002604;-78
2023/08/26 00:15:43;;;;;;;;;34.00;34.00;;;;;-128.00;-1.00;-1.00;106504;1266;1002485;-77
2023/08/26 00:18:11;;;;;;;;;35.00;32.75;;;;;-128.00;-1.00;-1.00;106497;1265;1002567;-78
2023/08/26 00:20:38;;;;;;;;;43.50;36.50;;;;;-128.00;-1.00;-1.00;106539;1258;1006012;-78
2023/08/26 00:23:04;;;;;;;;;36.00;33.33;;;;;-128.00;-1.00;-1.00;106532;1250;1002498;-78
2023/08/26 00:25:30;;;;;;;;;32.33;31.67;;;;;-128.00;-1.00;-1.00;106519;1250;1003138;-78
2023/08/26 00:27:56;;;;;;;;;34.50;32.50;;;;;-128.00;-1.00;-1.00;106510;1265;1002499;-78
2023/08/26 00:30:21;;;;;;;;;34.00;33.50;;;;;-128.00;-1.00;-1.00;106500;1266;1002862;-78
2023/08/26 00:32:47;;;;;;;;;34.50;30.50;;;;;-128.00;-1.00;-1.00;106495;1265;1002748;-78
2023/08/26 00:35:13;;;;;;;;;35.75;34.00;;;;;-128.00;-1.00;-1.00;106497;1251;1002845;-78
2023/08/26 00:37:39;;;;;;;;;34.00;33.00;;;;;-128.00;-1.00;-1.00;106464;1265;1002738;-78
2023/08/26 00:40:05;;;;;;;;;39.00;37.00;;;;;-128.00;-1.00;-1.00;106412;1265;1002861;-79
2023/08/26 00:42:31;;;;;;;;;32.67;30.33;;;;;-128.00;-1.00;-1.00;106403;1265;1002209;-79
2023/08/26 00:44:57;;;;;;;;;34.33;33.33;;;;;-128.00;-1.00;-1.00;106441;1266;1002219;-78
2023/08/26 00:47:23;;;;;;;;;37.50;34.00;;;;;-128.00;-1.00;-1.00;106421;1265;1002776;-79
2023/08/26 00:49:49;;;;;;;;;34.50;33.50;;;;;-128.00;-1.00;-1.00;106428;1265;1002603;-79
2023/08/26 00:52:15;;;;;;;;;37.50;34.00;;;;;-128.00;-1.00;-1.00;106422;1266;1002948;-79
2023/08/26 00:54:41;;;;;;;;;32.00;31.00;;;;;-128.00;-1.00;-1.00;106419;1266;1002825;-78
2023/08/26 00:57:07;;;;;;;;;34.50;32.50;;;;;-128.00;-1.00;-1.00;106431;1265;1002926;-78
2023/08/26 00:59:33;;;;;;;;;35.50;32.50;;;;;-128.00;-1.00;-1.00;106409;1250;1002446;-78
2023/08/26 01:01:59;;;;;;;;;36.00;34.00;;;;;-128.00;-1.00;-1.00;106455;1266;1002771;-77
2023/08/26 01:04:25;;;;;;;;;34.50;33.00;;;;;-128.00;-1.00;-1.00;106499;1251;1002706;-80
2023/08/26 01:06:51;;;;;;;;;37.00;35.00;;;;;-128.00;-1.00;-1.00;106470;1265;1002690;-79
2023/08/26 01:09:17;;;;;;;;;38.00;35.00;;;;;-128.00;-1.00;-1.00;106505;1251;1002817;-77
2023/08/26 01:11:43;;;;;;;;;35.25;32.50;;;;;-128.00;-1.00;-1.00;106507;1265;1002350;-78
2023/08/26 01:14:09;;;;;;;;;39.00;35.00;;;;;-128.00;-1.00;-1.00;106423;1265;1002770;-79
2023/08/26 01:16:35;;;;;;;;;38.00;33.00;;;;;-128.00;-1.00;-1.00;106421;1250;1002580;-80
2023/08/26 01:19:01;;;;;;;;;35.33;33.33;;;;;-128.00;-1.00;-1.00;106443;1265;1002414;-79
2023/08/26 01:21:27;;;;;;;;;34.00;34.00;;;;;-128.00;-1.00;-1.00;106440;1251;1004016;-79
2023/08/26 01:23:53;;;;;;;;;38.00;35.00;;;;;-128.00;-1.00;-1.00;106461;1265;1002902;-79
2023/08/26 01:26:18;;;;;;;;;35.50;33.50;;;;;-128.00;-1.00;-1.00;106494;1251;1002540;-78
2023/08/26 01:28:45;;;;;;;;;35.75;32.25;;;;;-128.00;-1.00;-1.00;106445;1265;1002328;-78
2023/08/26 01:31:11;;;;;;;;;36.33;33.00;;;;;-128.00;-1.00;-1.00;106498;1251;1003152;-80
2023/08/26 01:33:36;;;;;;;;;35.50;33.00;;;;;-128.00;-1.00;-1.00;106496;1250;1002411;-80
2023/08/26 01:36:02;;;;;;;;;33.00;30.50;;;;;-128.00;-1.00;-1.00;106453;1251;1002651;-79
2023/08/26 01:38:28;;;;;;;;;36.67;34.67;;;;;-128.00;-1.00;-1.00;106431;1251;1002800;-80
2023/08/26 01:40:56;;;;;;;;;39.00;36.50;;;;;-128.00;-1.00;-1.00;106441;1265;1002218;-79
2023/08/26 01:43:22;;;;;;;;;36.50;32.50;;;;;-128.00;-1.00;-1.00;106489;1259;1003483;-79
2023/08/26 01:45:47;;;;;;;;;31.00;30.00;;;;;-128.00;-1.00;-1.00;106454;1251;1002521;-81
2023/08/26 01:48:13;;;;;;;;;39.67;35.00;;;;;-128.00;-1.00;-1.00;106430;1265;1002955;-78
2023/08/26 01:50:39;;;;;;;;;32.50;32.00;;;;;-128.00;-1.00;-1.00;106445;1265;1002460;-80
2023/08/26 01:53:06;;;;;;;;;30.00;29.00;;;;;-128.00;-1.00;-1.00;106410;1265;1002380;-80
2023/08/26 01:55:32;;;;;;;;;35.75;32.25;;;;;-128.00;-1.00;-1.00;106436;1250;1003421;-80
2023/08/26 01:57:59;;;;;;;;;32.50;30.50;;;;;-128.00;-1.00;-1.00;106460;1250;1002642;-77
2023/08/26 02:00:25;;;;;;;;;36.00;33.00;;;;;-128.00;-1.00;-1.00;106491;1250;1003959;-77
2023/08/26 02:02:51;;;;;;;;;34.00;31.00;;;;;-128.00;-1.00;-1.00;106470;1250;1002319;-77
2023/08/26 02:05:17;;;;;;;;;33.67;31.33;;;;;-128.00;-1.00;-1.00;106500;1250;1002501;-78
2023/08/26 02:07:43;;;;;;;;;33.00;31.00;;;;;-128.00;-1.00;-1.00;106496;1266;1002878;-79
2023/08/26 02:10:08;;;;;;;;;32.00;30.50;;;;;-128.00;-1.00;-1.00;106481;1265;1002435;-79
2023/08/26 02:12:34;;;;;;;;;34.00;31.00;;;;;-128.00;-1.00;-1.00;106475;1266;1002426;-79
2023/08/26 02:15:02;;;;;;;;;31.00;28.50;;;;;-128.00;-1.00;-1.00;106430;1266;1003024;-79
2023/08/26 02:17:28;;;;;;;;;30.50;29.00;;;;;-128.00;-1.00;-1.00;106460;1259;1003076;-79
2023/08/26 02:19:54;;;;;;;;;30.50;28.00;;;;;-128.00;-1.00;-1.00;106424;1265;1002128;-79
2023/08/26 02:22:20;;;;;;;;;33.50;32.25;;;;;-128.00;-1.00;-1.00;106504;1250;1003011;-76
2023/08/26 02:24:46;;;;;;;;;31.00;28.67;;;;;-128.00;-1.00;-1.00;106470;1265;1002591;-77
2023/08/26 02:27:12;;;;;;;;;32.00;30.00;;;;;-128.00;-1.00;-1.00;106476;1266;1004036;-77
2023/08/26 02:29:38;;;;;;;;;28.67;28.67;;;;;-128.00;-1.00;-1.00;106433;1265;1002690;-77
2023/08/26 02:32:04;;;;;;;;;29.00;28.00;;;;;-128.00;-1.00;-1.00;106464;1250;1002900;-77
2023/08/26 02:34:30;;;;;;;;;32.00;27.00;;;;;-128.00;-1.00;-1.00;106484;1265;1002601;-77
2023/08/26 02:36:56;;;;;;;;;26.50;26.00;;;;;-128.00;-1.00;-1.00;106441;1266;1002801;-75
2023/08/26 02:39:22;;;;;;;;;31.50;28.50;;;;;-128.00;-1.00;-1.00;106479;1265;1002407;-75
2023/08/26 02:41:48;;;;;;;;;25.50;24.50;;;;;-128.00;-1.00;-1.00;106529;1261;1003521;-74
2023/08/26 02:44:14;;;;;;;;;27.00;26.00;;;;;-128.00;-1.00;-1.00;106555;1266;1002619;-74
2023/08/26 02:46:40;;;;;;;;;31.00;28.00;;;;;-128.00;-1.00;-1.00;106541;1265;1002720;-75
2023/08/26 02:49:06;;;;;;;;;27.00;27.00;;;;;-128.00;-1.00;-1.00;106538;1261;1002450;-74
2023/08/26 02:51:32;;;;;;;;;30.00;28.33;;;;;-128.00;-1.00;-1.00;106461;1266;1004267;-75
2023/08/26 02:53:58;;;;;;;;;31.00;28.00;;;;;-128.00;-1.00;-1.00;106475;1250;1002590;-75
2023/08/26 02:56:24;;;;;;;;;29.00;27.00;;;;;-128.00;-1.00;-1.00;106410;1265;1002539;-75
2023/08/26 02:58:50;;;;;;;;;28.00;26.50;;;;;-128.00;-1.00;-1.00;106415;1266;1002688;-75
2023/08/26 03:01:16;;;;;;;;;31.50;30.50;;;;;-128.00;-1.00;-1.00;106474;1250;1003231;-76
2023/08/26 03:03:42;;;;;;;;;30.50;27.50;;;;;-128.00;-1.00;-1.00;106476;1250;1002639;-77
2023/08/26 03:06:08;;;;;;;;;26.67;23.33;;;;;-128.00;-1.00;-1.00;106488;1266;1002510;-76
2023/08/26 03:08:34;;;;;;;;;24.50;23.50;;;;;-128.00;-1.00;-1.00;106457;1266;1002600;-77
2023/08/26 03:11:00;;;;;;;;;27.00;27.00;;;;;-128.00;-1.00;-1.00;106462;1265;1002233;-77
2023/08/26 03:13:26;;;;;;;;;26.50;24.50;;;;;-128.00;-1.00;-1.00;106487;1265;1002270;-76
2023/08/26 03:15:52;;;;;;;;;26.00;25.00;;;;;-128.00;-1.00;-1.00;106529;1266;1002885;-77
2023/08/26 03:18:18;;;;;;;;;29.00;27.00;;;;;-128.00;-1.00;-1.00;106532;1260;1003778;-76
2023/08/26 03:20:44;;;;;;;;;28.00;26.00;;;;;-128.00;-1.00;-1.00;106557;1250;1002624;-76
2023/08/26 03:23:10;;;;;;;;;26.00;25.00;;;;;-128.00;-1.00;-1.00;106504;1265;1004587;-77
2023/08/26 03:25:36;;;;;;;;;31.00;26.00;;;;;-128.00;-1.00;-1.00;106463;1266;1003588;-77
2023/08/26 03:28:02;;;;;;;;;27.00;24.00;;;;;-128.00;-1.00;-1.00;106487;1265;1002885;-77
2023/08/26 03:30:28;;;;;;;;;28.00;27.00;;;;;-128.00;-1.00;-1.00;106485;1250;1002441;-77
2023/08/26 03:32:54;;;;;;;;;27.00;25.00;;;;;-128.00;-1.00;-1.00;106459;1266;1002325;-77
2023/08/26 03:35:20;;;;;;;;;25.50;25.00;;;;;-128.00;-1.00;-1.00;106428;1266;1002918;-79
2023/08/26 03:37:46;;;;;;;;;28.00;25.00;;;;;-128.00;-1.00;-1.00;106460;1266;1002556;-77
2023/08/26 03:40:13;;;;;;;;;26.00;25.50;;;;;-128.00;-1.00;-1.00;106466;1265;1002755;-77
2023/08/26 03:42:39;;;;;;;;;26.00;25.67;;;;;-128.00;-1.00;-1.00;106425;1259;1003216;-75
2023/08/26 03:45:05;;;;;;;;;30.00;28.00;;;;;-128.00;-1.00;-1.00;106451;1251;1002479;-75
2023/08/26 03:47:32;;;;;;;;;26.00;25.00;;;;;-128.00;-1.00;-1.00;106448;1266;1002707;-76
2023/08/26 03:49:58;;;;;;;;;25.00;24.67;;;;;-128.00;-1.00;-1.00;106467;1265;1005268;-76
2023/08/26 03:52:24;;;;;;;;;22.00;22.00;;;;;-128.00;-1.00;-1.00;106438;1266;1002335;-75
2023/08/26 03:54:50;;;;;;;;;26.00;25.00;;;;;-128.00;-1.00;-1.00;106454;1265;1002878;-76
2023/08/26 03:57:16;;;;;;;;;28.00;26.00;;;;;-128.00;-1.00;-1.00;106488;1260;1002642;-75
2023/08/26 03:59:42;;;;;;;;;21.00;21.00;;;;;-128.00;-1.00;-1.00;106429;1250;1002537;-74
2023/08/26 04:02:08;;;;;;;;;26.00;24.00;;;;;-128.00;-1.00;-1.00;106489;1265;1001995;-75
2023/08/26 04:04:34;;;;;;;;;27.00;25.00;;;;;-128.00;-1.00;-1.00;106486;1259;1005206;-75
2023/08/26 04:07:00;;;;;;;;;25.50;24.50;;;;;-128.00;-1.00;-1.00;106499;1266;1002625;-75
2023/08/26 04:09:26;;;;;;;;;26.00;24.67;;;;;-128.00;-1.00;-1.00;106528;1265;1002721;-75
2023/08/26 04:11:51;;;;;;;;;29.00;27.00;;;;;-128.00;-1.00;-1.00;106518;1250;1002373;-76
2023/08/26 04:14:17;;;;;;;;;26.00;25.00;;;;;-128.00;-1.00;-1.00;106479;1265;1002628;-76
2023/08/26 04:16:44;;;;;;;;;24.00;23.50;;;;;-128.00;-1.00;-1.00;106454;1265;1002531;-75
2023/08/26 04:19:10;;;;;;;;;23.00;21.00;;;;;-128.00;-1.00;-1.00;106514;1250;1002726;-76
2023/08/26 04:21:36;;;;;;;;;26.50;25.00;;;;;-128.00;-1.00;-1.00;106519;1250;1002887;-75
2023/08/26 04:24:02;;;;;;;;;22.00;21.00;;;;;-128.00;-1.00;-1.00;106506;1265;1002129;-75
2023/08/26 04:26:28;;;;;;;;;23.00;23.00;;;;;-128.00;-1.00;-1.00;106471;1265;1002612;-75
2023/08/26 04:28:54;;;;;;;;;26.00;24.25;;;;;-128.00;-1.00;-1.00;106522;1265;1002279;-75
2023/08/26 04:31:20;;;;;;;;;25.67;24.00;;;;;-128.00;-1.00;-1.00;106521;1265;1002444;-75
2023/08/26 04:33:46;;;;;;;;;25.00;24.00;;;;;-128.00;-1.00;-1.00;106529;1250;1002762;-75
2023/08/26 04:36:12;;;;;;;;;20.00;19.00;;;;;-128.00;-1.00;-1.00;106533;1250;1002620;-75
2023/08/26 04:38:38;;;;;;;;;27.00;24.00;;;;;-128.00;-1.00;-1.00;106521;1265;1002797;-75
2023/08/26 04:41:05;;;;;;;;;;;;;;;-128.00;-1.00;-1.00;106521;1265;1002700;-75
2023/08/26 04:43:31;;;;;;;;;29.50;24.50;;;;;-128.00;-1.00;-1.00;106538;1260;1002409;-76
2023/08/26 04:45:58;;;;;;;;;25.67;23.67;;;;;-128.00;-1.00;-1.00;106517;1250;1002506;-76
2023/08/26 04:48:24;;;;;;;;;25.00;25.00;;;;;-128.00;-1.00;-1.00;106498;1266;1002485;-76
2023/08/26 04:50:50;;;;;;;;;22.00;22.00;;;;;-128.00;-1.00;-1.00;106488;1250;1003895;-75
2023/08/26 04:53:16;;;;;;;;;25.50;25.00;;;;;-128.00;-1.00;-1.00;106502;1266;1002502;-75
2023/08/26 04:55:42;;;;;;;;;27.00;26.50;;;;;-128.00;-1.00;-1.00;106518;1250;1002642;-75
2023/08/26 04:58:08;;;;;;;;;24.50;23.50;;;;;-128.00;-1.00;-1.00;106502;1266;1003051;-75
2023/08/26 05:00:35;;;;;;;;;25.00;23.50;;;;;-128.00;-1.00;-1.00;106500;1265;1002512;-75
2023/08/26 05:03:01;;;;;;;;;30.67;23.67;;;;;-128.00;-1.00;-1.00;106493;1251;1002975;-76
2023/08/26 05:05:27;;;;;;;;;21.00;21.00;;;;;-128.00;-1.00;-1.00;106479;1250;1002644;-77
2023/08/26 05:07:55;;;;;;;;;23.00;20.00;;;;;-128.00;-1.00;-1.00;106489;1250;1003317;-76
2023/08/26 05:10:21;;;;;;;;;27.00;22.00;;;;;-128.00;-1.00;-1.00;106478;1259;1003651;-74
2023/08/26 05:12:47;;;;;;;;;27.33;23.00;;;;;-128.00;-1.00;-1.00;106396;1266;1002917;-75
2023/08/26 05:15:13;;;;;;;;;25.00;23.67;;;;;-128.00;-1.00;-1.00;106434;1250;1001963;-77
2023/08/26 05:17:39;;;;;;;;;24.00;23.00;;;;;-128.00;-1.00;-1.00;106429;1265;1004486;-76
2023/08/26 05:20:05;;;;;;;;;25.50;23.00;;;;;-128.00;-1.00;-1.00;106439;1265;1002480;-77
2023/08/26 05:22:31;;;;;;;;;20.00;19.00;;;;;-128.00;-1.00;-1.00;106412;1266;1002687;-78
2023/08/26 05:24:57;;;;;;;;;24.00;20.50;;;;;-128.00;-1.00;-1.00;106433;1265;1002536;-79
2023/08/26 05:27:23;;;;;;;;;20.00;18.00;;;;;-128.00;-1.00;-1.00;106470;1266;1002715;-76
2023/08/26 05:29:49;;;;;;;;;19.50;18.00;;;;;-128.00;-1.00;-1.00;106506;1266;1002554;-82
2023/08/26 05:32:15;;;;;;;;;21.50;21.50;;;;;-128.00;-1.00;-1.00;106512;1251;1002405;-79
2023/08/26 05:34:41;;;;;;;;;19.67;17.33;;;;;-128.00;-1.00;-1.00;106496;1265;1002760;-79
2023/08/26 05:37:06;;;;;;;;;22.00;16.00;;;;;-128.00;-1.00;-1.00;106493;1250;1002225;-80
2023/08/26 05:39:32;;;;;;;;;21.00;20.00;;;;;-128.00;-1.00;-1.00;106467;1265;1002582;-78
2023/08/26 05:41:58;;;;;;;;;18.00;18.00;;;;;-128.00;-1.00;-1.00;106459;1265;1003044;-79
2023/08/26 05:44:24;;;;;;;;;17.00;16.67;;;;;-128.00;-1.00;-1.00;106529;1265;1002883;-77
2023/08/26 05:46:50;;;;;;;;;15.33;15.00;;;;;-128.00;-1.00;-1.00;106472;1265;1002598;-77
2023/08/26 05:49:16;;;;;;;;;16.00;16.00;;;;;-128.00;-1.00;-1.00;106424;1266;1002617;-78
2023/08/26 05:51:43;;;;;;;;;15.50;15.50;;;;;-128.00;-1.00;-1.00;106435;1250;1002716;-77
2023/08/26 05:54:09;;;;;;;;;16.00;16.00;;;;;-128.00;-1.00;-1.00;106433;1265;1002888;-78
2023/08/26 05:56:35;;;;;;;;;15.00;14.50;;;;;-128.00;-1.00;-1.00;106460;1265;1003436;-77
2023/08/26 05:59:01;;;;;;;;;14.50;14.00;;;;;-128.00;-1.00;-1.00;106476;1250;1002852;-75
2023/08/26 06:01:26;;;;;;;;;15.00;13.25;;;;;-128.00;-1.00;-1.00;106490;1250;1002353;-77
2023/08/26 06:03:52;;;;;;;;;15.00;15.00;;;;;-128.00;-1.00;-1.00;106513;1265;1002621;-77
2023/08/26 06:06:18;;;;;;;;;13.67;12.67;;;;;-128.00;-1.00;-1.00;106530;1266;1002508;-84
2023/08/26 06:08:44;;;;;;;;;17.00;14.00;;;;;-128.00;-1.00;-1.00;106439;1250;1003075;-81
2023/08/26 06:11:10;;;;;;;;;14.50;12.00;;;;;-128.00;-1.00;-1.00;106420;1266;1002770;-84
2023/08/26 06:13:36;;;;;;;;;13.00;13.00;;;;;-128.00;-1.00;-1.00;106424;1265;1002357;-82
2023/08/26 06:16:02;;;;;;;;;13.33;12.33;;;;;-128.00;-1.00;-1.00;106472;1266;1003046;-85
2023/08/26 06:18:28;;;;;;;;;12.00;12.00;;;;;-128.00;-1.00;-1.00;106461;1250;1003591;-83
2023/08/26 06:20:54;;;;;;;;;12.00;11.00;;;;;-128.00;-1.00;-1.00;106456;1266;1002392;-82
2023/08/26 06:23:20;;;;;;;;;11.00;11.00;;;;;-128.00;-1.00;-1.00;106439;1266;1002602;-84
2023/08/26 06:25:47;;;;;;;;;14.00;12.00;;;;;-128.00;-1.00;-1.00;106475;1265;1002869;-83
2023/08/26 06:28:13;;;;;;;;;13.00;11.00;;;;;-128.00;-1.00;-1.00;106437;1250;1002731;-83
2023/08/26 06:30:39;;;;;;;;;15.00;12.00;;;;;-128.00;-1.00;-1.00;106399;1265;1002852;-83
2023/08/26 06:33:05;;;;;;;;;12.75;12.25;;;;;-128.00;-1.00;-1.00;106435;1266;1003043;-82
2023/08/26 06:35:31;;;;;;;;;11.00;11.00;;;;;-128.00;-1.00;-1.00;106423;1251;1002716;-83
2023/08/26 06:37:57;;;;;;;;;10.00;10.00;;;;;-128.00;-1.00;-1.00;106459;1250;1002909;-80
2023/08/26 06:40:23;;;;;;;;;12.00;11.00;;;;;-128.00;-1.00;-1.00;106512;1265;1002766;-81
2023/08/26 06:42:49;;;;;;;;;137.00;95.00;;;;;-128.00;-1.00;-1.00;106454;1265;1002878;-85
2023/08/26 06:45:15;;;;;;;;;395.00;277.50;;;;;-128.00;-1.00;-1.00;106513;1266;1003426;-81
2023/08/26 06:47:41;;;;;;;;;227.00;165.00;;;;;-128.00;-1.00;-1.00;106508;1266;1002901;-83
2023/08/26 06:50:08;;;;;;;;;623.00;566.00;;;;;-128.00;-1.00;-1.00;106499;1266;1002624;-84
2023/08/26 06:52:34;;;;;;;;;179.50;139.00;;;;;-128.00;-1.00;-1.00;106486;1250;1003444;-82
2023/08/26 06:55:00;;;;;;;;;179.00;133.00;;;;;-128.00;-1.00;-1.00;106533;1265;1002175;-82
2023/08/26 06:57:26;;;;;;;;;93.00;67.00;;;;;-128.00;-1.00;-1.00;106516;1265;1002420;-83
2023/08/26 06:59:52;;;;;;;;;66.00;49.00;;;;;-128.00;-1.00;-1.00;106492;1265;1002523;-82
2023/08/26 07:02:18;;;;;;;;;50.00;37.00;;;;;-128.00;-1.00;-1.00;106508;1265;1002750;-84
2023/08/26 07:04:44;;;;;;;;;38.50;32.50;;;;;-128.00;-1.00;-1.00;106464;1265;1002547;-83
2023/08/26 07:07:11;;;;;;;;;25.00;20.00;;;;;-128.00;-1.00;-1.00;106468;1250;1004202;-86
2023/08/26 07:09:37;;;;;;;;;18.00;16.50;;;;;-128.00;-1.00;-1.00;106479;1250;1002994;-76
2023/08/26 07:12:03;;;;;;;;;20.33;16.67;;;;;-128.00;-1.00;-1.00;106464;1265;1002799;-76
2023/08/26 07:14:29;;;;;;;;;16.67;14.67;;;;;-128.00;-1.00;-1.00;106479;1266;1003640;-74
2023/08/26 07:16:55;;;;;;;;;12.33;11.67;;;;;-128.00;-1.00;-1.00;106460;1265;1002613;-75
2023/08/26 07:19:21;;;;;;;;;16.33;13.00;;;;;-128.00;-1.00;-1.00;106438;1251;1003513;-77
2023/08/26 07:21:48;;;;;;;;;12.33;12.00;;;;;-128.00;-1.00;-1.00;106471;1266;1002337;-77
2023/08/26 07:24:15;;;;;;;;;13.33;11.33;;;;;-128.00;-1.00;-1.00;106476;1250;1003991;-77
2023/08/26 07:26:41;;;;;;;;;13.00;11.00;;;;;-128.00;-1.00;-1.00;106468;1251;1002856;-77
2023/08/26 07:29:07;;;;;;;;;14.00;10.25;;;;;-128.00;-1.00;-1.00;106465;1250;1002709;-77
2023/08/26 07:31:32;;;;;;;;;9.00;9.00;;;;;-128.00;-1.00;-1.00;106316;1250;1002395;-78
2023/08/26 07:33:58;;;;;;;;;8.00;7.00;;;;;-128.00;-1.00;-1.00;106451;1265;1002875;-75
2023/08/26 07:36:25;;;;;;;;;9.00;9.00;;;;;-128.00;-1.00;-1.00;106480;1250;1002719;-76
2023/08/26 07:38:51;;;;;;;;;9.00;9.00;;;;;-128.00;-1.00;-1.00;106460;1251;1002620;-75
2023/08/26 07:41:18;;;;;;;;;8.00;8.00;;;;;-128.00;-1.00;-1.00;106442;1265;1002639;-76
2023/08/26 07:43:44;;;;;;;;;7.00;7.00;;;;;-128.00;-1.00;-1.00;106417;1260;1002834;-77
2023/08/26 07:46:10;;;;;;;;;8.67;7.67;;;;;-128.00;-1.00;-1.00;106421;1265;1002544;-75
2023/08/26 07:48:36;;;;;;;;;8.50;7.00;;;;;-128.00;-1.00;-1.00;106441;1265;1004586;-76
2023/08/26 07:51:02;;;;;;;;;8.00;7.33;;;;;-128.00;-1.00;-1.00;106501;1250;1003183;-76
2023/08/26 07:53:28;;;;;;;;;8.00;8.00;;;;;-128.00;-1.00;-1.00;106477;1265;1002797;-75
2023/08/26 07:55:54;;;;;;;;;7.00;7.00;;;;;-128.00;-1.00;-1.00;106454;1265;1002450;-74
2023/08/26 07:58:20;;;;;;;;;6.75;6.00;;;;;-128.00;-1.00;-1.00;106460;1266;1002283;-73
2023/08/26 08:00:46;;;;;;;;;7.00;6.00;;;;;-128.00;-1.00;-1.00;106467;1265;1002990;-74
2023/08/26 08:03:12;;;;;;;;;7.33;7.00;;;;;-128.00;-1.00;-1.00;106433;1265;1002388;-74
2023/08/26 08:05:38;;;;;;;;;6.00;6.00;;;;;-128.00;-1.00;-1.00;106439;1266;1002228;-73
2023/08/26 08:08:04;;;;;;;;;6.50;5.50;;;;;-128.00;-1.00;-1.00;106421;1266;1002919;-74
2023/08/26 08:10:30;;;;;;;;;6.00;6.00;;;;;-128.00;-1.00;-1.00;106435;1251;1002581;-76
2023/08/26 08:12:56;;;;;;;;;6.00;6.00;;;;;-128.00;-1.00;-1.00;106402;1266;1002236;-76
2023/08/26 08:15:22;;;;;;;;;7.00;7.00;;;;;-128.00;-1.00;-1.00;106466;1250;1002917;-76
2023/08/26 08:17:48;;;;;;;;;6.00;6.00;;;;;-128.00;-1.00;-1.00;106424;1265;1002655;-73
2023/08/26 08:20:14;;;;;;;;;4.00;4.00;;;;;-128.00;-1.00;-1.00;106473;1250;1003354;-74
2023/08/26 08:22:41;;;;;;;;;6.00;6.00;;;;;-128.00;-1.00;-1.00;106475;1250;1002280;-74
2023/08/26 08:25:07;;;;;;;;;7.00;6.00;;;;;-128.00;-1.00;-1.00;106467;1251;1002891;-74
2023/08/26 08:27:33;;;;;;;;;4.00;4.00;;;;;-128.00;-1.00;-1.00;106439;1250;1003076;-74
2023/08/26 08:29:59;;;;;;;;;7.00;7.00;;;;;-128.00;-1.00;-1.00;106423;1266;1003290;-74
2023/08/26 08:32:25;;;;;;;;;6.00;6.00;;;;;-128.00;-1.00;-1.00;106411;1250;1002608;-74
2023/08/26 08:34:51;;;;;;;;;6.00;6.00;;;;;-128.00;-1.00;-1.00;106423;1266;1002869;-74
2023/08/26 08:37:17;;;;;;;;;6.33;6.00;;;;;-128.00;-1.00;-1.00;106473;1265;1002689;-74
2023/08/26 08:39:43;;;;;;;;;6.00;6.00;;;;;-128.00;-1.00;-1.00;106496;1251;1002168;-75
2023/08/26 08:42:09;;;;;;;;;7.00;6.50;;;;;-128.00;-1.00;-1.00;106505;1251;1002693;-74
2023/08/26 08:44:35;;;;;;;;;5.00;5.00;;;;;-128.00;-1.00;-1.00;106453;1250;1002837;-77
2023/08/26 08:47:04;;;;;;;;;4.00;4.00;;;;;-128.00;-1.00;-1.00;106471;1251;1003597;-76
2023/08/26 08:49:30;;;;;;;;;6.50;6.50;;;;;-128.00;-1.00;-1.00;106421;1260;1007009;-78
2023/08/26 08:51:56;;;;;;;;;7.33;7.00;;;;;-128.00;-1.00;-1.00;106379;1253;1003154;-75
2023/08/26 08:54:22;;;;;;;;;6.00;6.00;;;;;-128.00;-1.00;-1.00;106424;1265;1002539;-76
2023/08/26 08:56:48;;;;;;;;;7.00;6.50;;;;;-128.00;-1.00;-1.00;106455;1265;1002798;-75
2023/08/26 08:59:14;;;;;;;;;6.67;6.67;;;;;-128.00;-1.00;-1.00;106464;1250;1002926;-75
2023/08/26 09:01:40;;;;;;;;;6.00;6.00;;;;;-128.00;-1.00;-1.00;106474;1265;1002934;-77
2023/08/26 09:04:07;;;;;;;;;4.00;4.00;;;;;-128.00;-1.00;-1.00;106461;1266;1004010;-76
2023/08/26 09:06:34;;;;;;;;;6.00;4.00;;;;;-128.00;-1.00;-1.00;106448;1266;1003108;-76
2023/08/26 09:09:00;;;;;;;;;6.00;6.00;;;;;-128.00;-1.00;-1.00;106494;1250;1002716;-76
2023/08/26 09:11:27;;;;;;;;;6.33;6.00;;;;;-128.00;-1.00;-1.00;106448;1266;1002890;-76
2023/08/26 09:13:53;;;;;;;;;4.00;4.00;;;;;-128.00;-1.00;-1.00;106487;1250;1002536;-75
2023/08/26 09:16:19;;;;;;;;;4.00;4.00;;;;;-128.00;-1.00;-1.00;106480;1266;1002611;-75
2023/08/26 09:18:45;;;;;;;;;6.00;4.00;;;;;-128.00;-1.00;-1.00;106439;1250;1003325;-74
2023/08/26 09:21:10;;;;;;;;;4.67;4.67;;;;;-128.00;-1.00;-1.00;106464;1265;1003090;-74
2023/08/26 09:23:36;;;;;;;;;4.00;4.00;;;;;-128.00;-1.00;-1.00;106497;1266;1002328;-74
2023/08/26 09:26:02;;;;;;;;;4.00;4.00;;;;;-128.00;-1.00;-1.00;106462;1265;1002306;-74
2023/08/26 09:28:28;;;;;;;;;5.33;5.33;;;;;-128.00;-1.00;-1.00;106464;1265;1002292;-76
2023/08/26 09:30:54;;;;;;;;;3.00;3.00;;;;;-128.00;-1.00;-1.00;106484;1266;1002756;-76
2023/08/26 09:33:20;;;;;;;;;5.00;5.00;;;;;-128.00;-1.00;-1.00;106499;1265;1002812;-74
2023/08/26 09:35:46;;;;;;;;;5.00;4.50;;;;;-128.00;-1.00;-1.00;106498;1265;1002795;-75
2023/08/26 09:38:12;;;;;;;;;4.00;4.00;;;;;-128.00;-1.00;-1.00;106449;1265;1002309;-75
2023/08/26 09:40:39;;;;;;;;;3.67;3.67;;;;;-128.00;-1.00;-1.00;106485;1266;1004176;-74
2023/08/26 09:43:06;;;;;;;;;4.00;3.00;;;;;-128.00;-1.00;-1.00;106434;1251;1002497;-74
2023/08/26 09:45:32;;;;;;;;;4.00;4.00;;;;;-128.00;-1.00;-1.00;106454;1259;1002864;-75
2023/08/26 09:47:58;;;;;;;;;3.00;3.00;;;;;-128.00;-1.00;-1.00;106402;1250;1002310;-75
2023/08/26 09:50:24;;;;;;;;;4.00;3.00;;;;;-128.00;-1.00;-1.00;106458;1265;1002463;-75
2023/08/26 09:52:50;;;;;;;;;2.00;2.00;;;;;-128.00;-1.00;-1.00;106489;1266;1002766;-75
2023/08/26 09:55:16;;;;;;;;;3.00;2.50;;;;;-128.00;-1.00;-1.00;106471;1265;1002477;-74
2023/08/26 09:57:43;;;;;;;;;3.00;2.50;;;;;-128.00;-1.00;-1.00;106502;1265;1002713;-74
2023/08/26 10:00:10;;;;;;;;;3.00;3.00;;;;;-128.00;-1.00;-1.00;106514;1251;1003431;-74
2023/08/26 10:02:36;;;;;;;;;3.00;2.00;;;;;-128.00;-1.00;-1.00;106469;1259;1002761;-74
2023/08/26 10:05:02;;;;;;;;;2.00;2.00;;;;;-128.00;-1.00;-1.00;106484;1265;1002305;-75
2023/08/26 10:07:28;;;;;;;;;2.33;2.33;;;;;-128.00;-1.00;-1.00;106469;1265;1003244;-75
2023/08/26 10:09:54;;;;;;;;;1.50;1.50;;;;;-128.00;-1.00;-1.00;106411;1266;1002819;-75
2023/08/26 10:12:20;;;;;;;;;3.00;3.00;;;;;-128.00;-1.00;-1.00;106422;1250;1002712;-75
2023/08/26 10:14:46;;;;;;;;;2.00;2.00;;;;;-128.00;-1.00;-1.00;106426;1265;1002827;-75
2023/08/26 10:17:12;;;;;;;;;3.00;3.00;;;;;-128.00;-1.00;-1.00;106429;1250;1002219;-76
2023/08/26 10:19:38;;;;;;;;;2.00;2.00;;;;;-128.00;-1.00;-1.00;106394;1265;1002598;-74
2023/08/26 10:22:04;;;;;;;;;2.00;2.00;;;;;-128.00;-1.00;-1.00;106398;1250;1003562;-75
2023/08/26 10:24:30;;;;;;;;;2.00;2.00;;;;;-128.00;-1.00;-1.00;106513;1265;1002391;-75
2023/08/26 10:26:56;;;;;;;;;2.00;2.00;;;;;-128.00;-1.00;-1.00;106488;1265;1002891;-76
2023/08/26 10:29:22;;;;;;;;;1.00;1.00;;;;;-128.00;-1.00;-1.00;106498;1265;1003007;-75
2023/08/26 10:31:48;;;;;;;;;1.50;1.50;;;;;-128.00;-1.00;-1.00;106436;1259;1002646;-76
2023/08/26 10:34:14;;;;;;;;;2.00;2.00;;;;;-128.00;-1.00;-1.00;106430;1265;1003955;-76
2023/08/26 10:36:40;;;;;;;;;2.00;2.00;;;;;-128.00;-1.00;-1.00;106410;1265;1002463;-76
2023/08/26 10:39:06;;;;;;;;;2.00;2.00;;;;;-128.00;-1.00;-1.00;106418;1265;1002853;-76
2023/08/26 10:41:32;;;;;;;;;2.00;2.00;;;;;-128.00;-1.00;-1.00;106434;1266;1002402;-76
2023/08/26 10:43:58;;;;;;;;;1.33;1.33;;;;;-128.00;-1.00;-1.00;106417;1265;1002753;-76
2023/08/26 10:46:24;;;;;;;;;2.00;2.00;;;;;-128.00;-1.00;-1.00;106425;1250;1002774;-76
2023/08/26 10:48:50;;;;;;;;;1.33;1.33;;;;;-128.00;-1.00;-1.00;106429;1266;1003300;-76
2023/08/26 10:51:16;;;;;;;;;1.00;1.00;;;;;-128.00;-1.00;-1.00;106449;1266;1002634;-76
2023/08/26 10:53:42;;;;;;;;;2.00;2.00;;;;;-128.00;-1.00;-1.00;106472;1266;1002699;-75
2023/08/26 10:56:08;;;;;;;;;2.00;2.00;;;;;-128.00;-1.00;-1.00;106491;1250;1002809;-75
2023/08/26 10:58:34;;;;;;;;;2.00;2.00;;;;;-128.00;-1.00;-1.00;106486;1265;1002806;-75
2023/08/26 11:01:00;;;;;;;;;2.00;2.00;;;;;-128.00;-1.00;-1.00;106426;1265;1003109;-75